New Creation — 3EGO6 — position and weather

sailwx.info

Track history (hours):
 
Tides and Currents Weather Stations Pressure Air Temp Water Temp Dewpoint Dewpoint Depression Visibility Wind Speed Wind Dir Waves Ship Positions

New Creation

Last reported at 2017-Mar-22 19:17 UTC. Time now 2017-Mar-28 21:48 UTC.
Position S 26°36' E 153°14'.

Length 176 m; draft 11.1 m.

Type: Cargo ship. MMSI: 353507000.

Date/timePositionNaut miles runAvg speedWind from/ knotsBaromVisibWave heightAir tempDewpointWater temp
2017-Mar-22 19:17S 26°36' E 153°14'811.0
2017-Mar-22 18:31S 26°43' E 153°11'9 9.5
2017-Mar-22 17:33S 26°52' E 153°10'1111.3
2017-Mar-22 16:33S 27°02' E 153°15'1010.4
2017-Mar-22 15:33S 27°12' E 153°21'1111.0
2017-Mar-22 14:33S 27°20' E 153°12'4 3.9
2017-Mar-22 13:33S 27°23' E 153°10'0 0.0
2017-Mar-22 12:33S 27°23' E 153°10'0 0.0
2017-Mar-22 11:33S 27°23' E 153°10'0 0.0
2017-Mar-22 10:33S 27°23' E 153°10'0 0.0
2017-Mar-22 09:33S 27°23' E 153°10'0 0.0
2017-Mar-22 08:33S 27°23' E 153°10'0 0.0
2017-Mar-22 07:33S 27°23' E 153°10'0 0.0
2017-Mar-22 06:33S 27°23' E 153°10'0 0.0
2017-Mar-22 05:33S 27°23' E 153°10'0 0.0
2017-Mar-22 04:33S 27°23' E 153°10'0 0.0
2017-Mar-22 03:33S 27°23' E 153°10'0 0.0
2017-Mar-22 02:33S 27°23' E 153°10'0 0.0
2017-Mar-22 01:33S 27°23' E 153°10'0 0.0
2017-Mar-22 00:33S 27°23' E 153°10'0 0.0
2017-Mar-21 23:33S 27°23' E 153°10'0 0.0
2017-Mar-21 22:33S 27°23' E 153°10'0 0.0
2017-Mar-21 21:33S 27°23' E 153°10'0 0.0
2017-Mar-21 20:33S 27°23' E 153°10'0 0.0
2017-Mar-21 19:33S 27°23' E 153°10'0 0.0
2017-Mar-21 18:33S 27°23' E 153°10'0 0.0
2017-Mar-21 17:33S 27°23' E 153°10'0 0.0
2017-Mar-21 16:33S 27°23' E 153°10'0 0.0
2017-Mar-21 15:33S 27°23' E 153°10'0 0.0
2017-Mar-21 14:27S 27°23' E 153°10'0 0.0
2017-Mar-21 13:33S 27°23' E 153°10'0 0.0
2017-Mar-21 12:33S 27°23' E 153°10'0 0.0
2017-Mar-21 11:30S 27°23' E 153°10'0 0.0
2017-Mar-21 10:33S 27°23' E 153°10'0 0.0
2017-Mar-21 09:33S 27°23' E 153°10'0 0.0
2017-Mar-21 08:33S 27°23' E 153°10'0 0.0
2017-Mar-21 07:33S 27°23' E 153°10'2 1.7
2017-Mar-21 06:33S 27°21' E 153°11'1212.4
2017-Mar-21 05:33S 27°12' E 153°20'1212.2
2017-Mar-21 04:33S 27°01' E 153°15'1312.9
2017-Mar-21 03:33S 26°49' E 153°09'8 8.3
2017-Mar-21 02:33S 26°42' E 153°13'  
2017-Mar-17 21:31S 26°41' E 153°15'0 0.1
2017-Mar-17 20:31S 26°41' E 153°15'0 0.1
2017-Mar-17 19:31S 26°41' E 153°15'0 0.1
2017-Mar-17 18:31S 26°41' E 153°15'0 0.1
2017-Mar-17 17:28S 26°41' E 153°15'0 0.1
2017-Mar-17 16:27S 26°41' E 153°15'0 0.1
2017-Mar-17 15:29S 26°41' E 153°15'0 0.0
2017-Mar-17 14:32S 26°41' E 153°15'0 0.0
2017-Mar-17 12:29S 26°41' E 153°15'0 0.0
2017-Mar-17 11:23S 26°41' E 153°15'0 0.0
2017-Mar-17 04:11S 26°41' E 153°15'0 0.0
2017-Mar-17 03:20S 26°41' E 153°15'0 0.0
2017-Mar-17 02:29S 26°41' E 153°15'0 0.0
2017-Mar-16 18:29S 26°41' E 153°15'0 0.1
2017-Mar-16 16:29S 26°41' E 153°15'0 0.1
2017-Mar-16 15:32S 26°41' E 153°15'0 0.0
2017-Mar-16 14:32S 26°41' E 153°15'0 0.0
2017-Mar-16 13:30S 26°41' E 153°15'0 0.1
2017-Mar-16 12:24S 26°41' E 153°15'0 0.0
2017-Mar-16 03:29S 26°41' E 153°15'0 0.0
2017-Mar-15 18:05S 26°41' E 153°15'0 0.0
2017-Mar-15 17:05S 26°41' E 153°15'0 0.0
2017-Mar-15 16:11S 26°41' E 153°15'0 0.0
2017-Mar-14 20:11S 26°41' E 153°15'0 0.0
2017-Mar-14 19:17S 26°41' E 153°15'  
Track history (hours):
 
Tides and Currents Weather Stations Pressure Air Temp Water Temp Dewpoint Dewpoint Depression Visibility Wind Speed Wind Dir Waves Ship Positions

New Creation

Last reported at 2017-Mar-22 19:17 UTC. Time now 2017-Mar-28 21:48 UTC.
Position S 26°36' E 153°14'.

Length 176 m; draft 11.1 m.

Type: Cargo ship. MMSI: 353507000.

Date/timePositionNaut miles runAvg speedWind from/ knotsBaromVisibWave heightAir tempDewpointWater temp
2017-Mar-22 19:17S 26°36' E 153°14'811.0
2017-Mar-22 18:31S 26°43' E 153°11'9 9.5
2017-Mar-22 17:33S 26°52' E 153°10'1111.3
2017-Mar-22 16:33S 27°02' E 153°15'1010.4
2017-Mar-22 15:33S 27°12' E 153°21'1111.0
2017-Mar-22 14:33S 27°20' E 153°12'4 3.9
2017-Mar-22 13:33S 27°23' E 153°10'0 0.0
2017-Mar-22 12:33S 27°23' E 153°10'0 0.0
2017-Mar-22 11:33S 27°23' E 153°10'0 0.0
2017-Mar-22 10:33S 27°23' E 153°10'0 0.0
2017-Mar-22 09:33S 27°23' E 153°10'0 0.0
2017-Mar-22 08:33S 27°23' E 153°10'0 0.0
2017-Mar-22 07:33S 27°23' E 153°10'0 0.0
2017-Mar-22 06:33S 27°23' E 153°10'0 0.0
2017-Mar-22 05:33S 27°23' E 153°10'0 0.0
2017-Mar-22 04:33S 27°23' E 153°10'0 0.0
2017-Mar-22 03:33S 27°23' E 153°10'0 0.0
2017-Mar-22 02:33S 27°23' E 153°10'0 0.0
2017-Mar-22 01:33S 27°23' E 153°10'0 0.0
2017-Mar-22 00:33S 27°23' E 153°10'0 0.0
2017-Mar-21 23:33S 27°23' E 153°10'0 0.0
2017-Mar-21 22:33S 27°23' E 153°10'0 0.0
2017-Mar-21 21:33S 27°23' E 153°10'0 0.0
2017-Mar-21 20:33S 27°23' E 153°10'0 0.0
2017-Mar-21 19:33S 27°23' E 153°10'0 0.0
2017-Mar-21 18:33S 27°23' E 153°10'0 0.0
2017-Mar-21 17:33S 27°23' E 153°10'0 0.0
2017-Mar-21 16:33S 27°23' E 153°10'0 0.0
2017-Mar-21 15:33S 27°23' E 153°10'0 0.0
2017-Mar-21 14:27S 27°23' E 153°10'0 0.0
2017-Mar-21 13:33S 27°23' E 153°10'0 0.0
2017-Mar-21 12:33S 27°23' E 153°10'0 0.0
2017-Mar-21 11:30S 27°23' E 153°10'0 0.0
2017-Mar-21 10:33S 27°23' E 153°10'0 0.0
2017-Mar-21 09:33S 27°23' E 153°10'0 0.0
2017-Mar-21 08:33S 27°23' E 153°10'0 0.0
2017-Mar-21 07:33S 27°23' E 153°10'2 1.7
2017-Mar-21 06:33S 27°21' E 153°11'1212.4
2017-Mar-21 05:33S 27°12' E 153°20'1212.2
2017-Mar-21 04:33S 27°01' E 153°15'1312.9
2017-Mar-21 03:33S 26°49' E 153°09'8 8.3
2017-Mar-21 02:33S 26°42' E 153°13'  
2017-Mar-17 21:31S 26°41' E 153°15'0 0.1
2017-Mar-17 20:31S 26°41' E 153°15'0 0.1
2017-Mar-17 19:31S 26°41' E 153°15'0 0.1
2017-Mar-17 18:31S 26°41' E 153°15'0 0.1
2017-Mar-17 17:28S 26°41' E 153°15'0 0.1
2017-Mar-17 16:27S 26°41' E 153°15'0 0.1
2017-Mar-17 15:29S 26°41' E 153°15'0 0.0
2017-Mar-17 14:32S 26°41' E 153°15'0 0.0
2017-Mar-17 12:29S 26°41' E 153°15'0 0.0
2017-Mar-17 11:23S 26°41' E 153°15'0 0.0
2017-Mar-17 04:11S 26°41' E 153°15'0 0.0
2017-Mar-17 03:20S 26°41' E 153°15'0 0.0
2017-Mar-17 02:29S 26°41' E 153°15'0 0.0
2017-Mar-16 18:29S 26°41' E 153°15'0 0.1
2017-Mar-16 16:29S 26°41' E 153°15'0 0.1
2017-Mar-16 15:32S 26°41' E 153°15'0 0.0
2017-Mar-16 14:32S 26°41' E 153°15'0 0.0
2017-Mar-16 13:30S 26°41' E 153°15'0 0.1
2017-Mar-16 12:24S 26°41' E 153°15'0 0.0
2017-Mar-16 03:29S 26°41' E 153°15'0 0.0
2017-Mar-15 18:05S 26°41' E 153°15'0 0.0
2017-Mar-15 17:05S 26°41' E 153°15'0 0.0
2017-Mar-15 16:11S 26°41' E 153°15'0 0.0
2017-Mar-14 20:11S 26°41' E 153°15'0 0.0
2017-Mar-14 19:17S 26°41' E 153°15'  

Dump ship's entire track history